Time;durP1;ratioP1;P1;durP2;ratioP2;P2;SDS_P1;SDS_P2;PMS_P1;PMS_P2;Temp;Humidity;BMP_temperature;BMP_pressure;BME280_temperature;BME280_humidity;BME280_pressure;Samples;Min_cycle;Max_cycle;Signal;HPM_P1;HPM_P2
2022/06/02 00:00:27;;;;;;;8.27;7.47;;;13.00;75.40;;;;;;5053220;28;20631;-85
2022/06/02 00:03:28;;;;;;;7.93;7.22;;;12.90;75.40;;;;;;5053303;28;20555;-85
2022/06/02 00:06:03;;;;;;;9.15;7.78;;;12.90;75.60;;;;;;5054348;28;20184;-84
2022/06/02 00:08:47;;;;;;;10.02;7.53;;;12.80;75.80;;;;;;5052997;28;20176;-84
2022/06/02 00:11:18;;;;;;;7.57;6.75;;;12.80;76.10;;;;;;5041452;28;20583;-84
2022/06/02 00:14:10;;;;;;;7.70;6.03;;;12.80;76.60;;;;;;5052897;28;20204;-84
2022/06/02 00:16:56;;;;;;;7.57;6.88;;;12.70;76.50;;;;;;5054438;28;20169;-83
2022/06/02 00:19:32;;;;;;;10.88;7.28;;;12.80;76.30;;;;;;5054777;28;20173;-85
2022/06/02 00:22:08;;;;;;;7.72;6.97;;;12.70;76.40;;;;;;5054132;28;20244;-84
2022/06/02 00:24:42;;;;;;;7.90;6.70;;;12.70;76.50;;;;;;5054835;28;20173;-85
2022/06/02 00:27:25;;;;;;;6.55;5.95;;;12.70;77.10;;;;;;5055746;28;20169;-83
2022/06/02 00:30:00;;;;;;;7.45;6.70;;;12.80;75.80;;;;;;5047450;28;20247;-84
2022/06/02 00:32:34;;;;;;;9.25;6.90;;;12.80;75.60;;;;;;5052850;28;20184;-83
2022/06/02 00:35:20;;;;;;;8.18;7.00;;;12.70;76.20;;;;;;5054020;28;20200;-83
2022/06/02 00:38:06;;;;;;;7.80;7.00;;;12.70;76.60;;;;;;5051709;28;20192;-84
2022/06/02 00:40:34;;;;;;;8.60;7.03;;;12.70;76.70;;;;;;5052353;28;20197;-84
2022/06/02 00:43:25;;;;;;;7.93;7.00;;;12.60;76.70;;;;;;5052338;28;20173;-84
2022/06/02 00:46:36;;;;;;;11.80;7.22;;;12.60;76.80;;;;;;5053565;28;20613;-84
2022/06/02 00:49:15;;;;;;;8.25;7.43;;;12.60;77.10;;;;;;4976406;28;20183;-84
2022/06/02 00:51:50;;;;;;;10.75;7.32;;;12.60;77.20;;;;;;4974852;28;20202;-85
2022/06/02 00:57:34;;;;;;;9.30;7.32;;;12.50;77.90;;;;;;5049344;28;20743;-84
2022/06/02 01:00:33;;;;;;;8.65;7.13;;;12.60;77.60;;;;;;5053385;28;20232;-84
2022/06/02 01:03:12;;;;;;;11.60;7.50;;;12.50;77.90;;;;;;5053036;28;20199;-84
2022/06/02 01:06:05;;;;;;;8.65;7.55;;;12.50;77.80;;;;;;5052553;28;20575;-83
2022/06/02 01:08:49;;;;;;;8.85;7.95;;;12.50;77.80;;;;;;5039087;28;20173;-84
2022/06/02 01:11:37;;;;;;;9.40;8.45;;;12.60;77.10;;;;;;5052614;28;20259;-84
2022/06/02 01:14:33;;;;;;;8.98;8.13;;;12.50;77.60;;;;;;5053331;28;20233;-84
2022/06/02 01:17:04;;;;;;;9.73;8.73;;;12.50;77.40;;;;;;5053553;28;20268;-85
2022/06/02 01:19:47;;;;;;;11.75;7.68;;;12.50;77.70;;;;;;5054019;28;20174;-83
2022/06/02 01:22:19;;;;;;;10.50;8.68;;;12.40;77.60;;;;;;5044716;28;20173;-84
2022/06/02 01:24:48;;;;;;;10.75;8.57;;;12.40;78.10;;;;;;5052222;28;20192;-85
2022/06/02 01:27:49;;;;;;;8.95;8.05;;;12.30;78.50;;;;;;5051587;28;20209;-85
2022/06/02 01:30:37;;;;;;;9.40;8.35;;;12.30;78.30;;;;;;5051950;28;20308;-84
2022/06/02 01:33:08;;;;;;;11.90;10.65;;;12.30;77.80;;;;;;5052894;28;20173;-85
2022/06/02 01:35:55;;;;;;;10.75;8.75;;;12.20;77.80;;;;;;5052569;28;20201;-85
2022/06/02 01:38:42;;;;;;;10.88;9.77;;;12.20;78.10;;;;;;5038992;28;20177;-84
2022/06/02 01:41:24;;;;;;;15.73;9.77;;;12.10;78.60;;;;;;5054209;28;20279;-84
2022/06/02 01:44:19;;;;;;;11.38;10.15;;;12.10;79.10;;;;;;5052614;28;20664;-83
2022/06/02 01:47:12;;;;;;;11.20;10.00;;;12.10;79.20;;;;;;5032432;28;20194;-84
2022/06/02 01:49:49;;;;;;;10.55;9.30;;;12.00;79.10;;;;;;5045801;28;20174;-84
2022/06/02 01:52:28;;;;;;;11.52;8.60;;;12.00;79.10;;;;;;5053569;28;20177;-84
2022/06/02 01:55:27;;;;;;;11.43;9.90;;;12.00;79.10;;;;;;5051919;28;20200;-84
2022/06/02 01:58:24;;;;;;;9.95;8.75;;;12.00;78.90;;;;;;5048569;28;20548;-84
2022/06/02 02:01:12;;;;;;;12.98;9.02;;;12.00;78.70;;;;;;5034955;28;20198;-84
2022/06/02 02:03:50;;;;;;;12.80;9.63;;;12.00;78.70;;;;;;5049991;28;20181;-84
2022/06/02 02:06:55;;;;;;;11.40;10.18;;;12.00;78.40;;;;;;5057315;28;20580;-84
2022/06/02 02:09:30;;;;;;;11.50;9.55;;;12.00;78.10;;;;;;5050524;28;20184;-83
2022/06/02 02:11:59;;;;;;;13.02;11.57;;;11.90;78.00;;;;;;5056595;28;20199;-84
2022/06/02 02:15:12;;;;;;;11.20;10.07;;;11.90;78.60;;;;;;5060835;28;20221;-84
2022/06/02 02:18:16;;;;;;;10.57;9.23;;;11.80;78.70;;;;;;5064895;28;20193;-84
2022/06/02 02:20:54;;;;;;;11.88;10.13;;;11.80;78.60;;;;;;5065982;28;20458;-82
2022/06/02 02:23:42;;;;;;;11.40;10.20;;;11.80;78.60;;;;;;5067471;28;20174;-83
2022/06/02 02:26:21;;;;;;;11.40;9.88;;;11.80;78.70;;;;;;5068492;28;20188;-82
2022/06/02 02:29:15;;;;;;;12.38;10.75;;;11.80;78.70;;;;;;5049544;28;20175;-84
2022/06/02 02:31:58;;;;;;;13.43;12.05;;;11.80;78.60;;;;;;5054932;28;20711;-83
2022/06/02 02:34:53;;;;;;;17.20;11.82;;;11.70;78.70;;;;;;5054479;28;20197;-83
2022/06/02 02:37:50;;;;;;;12.75;11.05;;;11.70;79.30;;;;;;5056594;28;20173;-84
2022/06/02 02:40:30;;;;;;;17.20;13.65;;;11.70;79.20;;;;;;5055352;28;20197;-85
2022/06/02 02:43:22;;;;;;;14.60;12.90;;;11.60;79.10;;;;;;5054453;28;20161;-82
2022/06/02 02:46:14;;;;;;;15.80;14.15;;;11.60;79.60;;;;;;5063702;28;20188;-84
2022/06/02 02:48:58;;;;;;;19.55;15.25;;;11.60;79.70;;;;;;5057654;28;20177;-83
2022/06/02 02:51:37;;;;;;;17.45;14.38;;;11.60;80.10;;;;;;5055325;28;20196;-83
2022/06/02 02:54:48;;;;;;;15.25;13.13;;;11.60;80.80;;;;;;5056822;28;20213;-84
2022/06/02 02:57:17;;;;;;;16.00;13.20;;;11.60;80.70;;;;;;5060165;28;20214;-84
2022/06/02 03:00:06;;;;;;;17.45;12.23;;;11.50;80.60;;;;;;5057867;28;20197;-85
2022/06/02 03:02:50;;;;;;;13.43;11.40;;;11.50;80.50;;;;;;5056884;28;20196;-85
2022/06/02 03:05:24;;;;;;;15.13;12.77;;;11.50;80.40;;;;;;5055619;28;20170;-83
2022/06/02 03:07:50;;;;;;;14.60;11.50;;;11.50;80.20;;;;;;5046181;28;20168;-83
2022/06/02 03:10:29;;;;;;;18.95;13.25;;;11.40;79.80;;;;;;5054382;28;20227;-83
2022/06/02 03:13:32;;;;;;;17.50;13.32;;;11.40;79.80;;;;;;5054947;28;20158;-83
2022/06/02 03:16:04;;;;;;;18.48;13.30;;;11.40;80.00;;;;;;5054058;28;20181;-84
2022/06/02 03:18:54;;;;;;;17.98;14.43;;;11.40;80.00;;;;;;5054114;28;20254;-83
2022/06/02 03:21:38;;;;;;;14.85;13.23;;;11.30;80.00;;;;;;5053690;28;20193;-83
2022/06/02 03:24:20;;;;;;;16.02;14.02;;;11.30;79.80;;;;;;5060435;28;20558;-84
2022/06/02 03:27:07;;;;;;;17.67;13.48;;;11.30;79.80;;;;;;5052853;28;20188;-84
2022/06/02 03:29:38;;;;;;;17.20;13.32;;;11.30;79.80;;;;;;5053228;28;20185;-84
2022/06/02 03:32:13;;;;;;;16.08;14.00;;;11.30;79.80;;;;;;5048254;28;20197;-84
2022/06/02 03:34:57;;;;;;;17.45;14.32;;;11.30;79.60;;;;;;5053273;28;20278;-85
2022/06/02 03:37:35;;;;;;;21.10;15.50;;;11.30;79.80;;;;;;5053719;28;20200;-84
2022/06/02 03:40:23;;;;;;;16.10;13.05;;;11.30;80.00;;;;;;5053538;28;20197;-84
2022/06/02 03:42:51;;;;;;;16.17;13.65;;;11.30;79.90;;;;;;5054517;28;20181;-83
2022/06/02 03:45:28;;;;;;;15.35;13.15;;;11.30;79.80;;;;;;5054895;28;20241;-83
2022/06/02 03:48:35;;;;;;;15.05;13.10;;;11.30;79.60;;;;;;5044985;28;20575;-85
2022/06/02 03:51:37;;;;;;;18.80;14.23;;;11.30;79.50;;;;;;5040217;28;20196;-83
2022/06/02 03:54:18;;;;;;;16.50;12.30;;;11.30;79.50;;;;;;5053386;28;20197;-83
2022/06/02 03:57:02;;;;;;;16.15;13.30;;;11.20;79.50;;;;;;5053338;28;20172;-82
2022/06/02 03:59:39;;;;;;;17.00;14.07;;;11.30;79.60;;;;;;5053765;28;20180;-82
2022/06/02 04:02:11;;;;;;;22.38;15.65;;;11.30;79.30;;;;;;5058445;28;20814;-84
2022/06/02 04:05:31;;;;;;;17.48;14.73;;;11.30;79.00;;;;;;5054566;28;20272;-83
2022/06/02 04:08:28;;;;;;;18.45;13.73;;;11.30;79.10;;;;;;5030822;28;20779;-82
2022/06/02 04:11:11;;;;;;;18.00;14.77;;;11.30;79.00;;;;;;5053217;28;20251;-83
2022/06/02 04:13:38;;;;;;;17.42;14.18;;;11.30;78.90;;;;;;5053335;28;20765;-83
2022/06/02 04:16:40;;;;;;;17.70;15.07;;;11.40;78.70;;;;;;5036814;28;20197;-83
2022/06/02 04:22:39;;;;;;;17.90;13.55;;;11.40;78.40;;;;;;5054688;28;20184;-82
2022/06/02 04:25:14;;;;;;;20.98;16.52;;;11.50;77.90;;;;;;5054806;28;20378;-83
2022/06/02 04:27:50;;;;;;;23.15;16.70;;;11.50;77.80;;;;;;5053269;28;20185;-83
2022/06/02 04:30:41;;;;;;;17.17;15.02;;;11.50;77.90;;;;;;5045271;28;20250;-83
2022/06/02 04:33:32;;;;;;;21.35;17.45;;;11.50;78.30;;;;;;5053059;28;20698;-83
2022/06/02 04:36:19;;;;;;;23.00;16.85;;;11.50;78.80;;;;;;5052893;28;20185;-83
2022/06/02 04:39:13;;;;;;;25.23;18.50;;;11.50;79.10;;;;;;5052447;28;20176;-84
2022/06/02 04:41:53;;;;;;;22.77;16.88;;;11.50;79.30;;;;;;5056316;28;20726;-83
2022/06/02 04:45:01;;;;;;;24.45;17.55;;;11.50;79.40;;;;;;5038005;28;20173;-82
2022/06/02 04:48:00;;;;;;;22.55;17.30;;;11.60;79.10;;;;;;5016667;28;20198;-83
2022/06/02 04:50:55;;;;;;;26.63;15.70;;;11.60;78.60;;;;;;5052690;28;20630;-83
2022/06/02 04:53:31;;;;;;;21.13;17.17;;;11.70;78.80;;;;;;5036432;28;20181;-84
2022/06/02 04:56:09;;;;;;;24.30;18.65;;;11.80;78.60;;;;;;5052975;28;20219;-83
2022/06/02 04:58:43;;;;;;;26.98;17.65;;;11.90;78.70;;;;;;5052405;28;20632;-83
2022/06/02 05:01:46;;;;;;;22.92;19.33;;;12.10;78.30;;;;;;5053711;28;20221;-82
2022/06/02 05:04:51;;;;;;;29.08;22.15;;;12.10;78.70;;;;;;5053044;28;20608;-82
2022/06/02 05:07:35;;;;;;;23.75;20.70;;;12.20;78.30;;;;;;5051168;28;20196;-82
2022/06/02 05:10:25;;;;;;;23.35;18.67;;;12.30;78.00;;;;;;5052207;28;20654;-83
2022/06/02 05:13:20;;;;;;;26.08;18.85;;;12.60;77.20;;;;;;5053087;28;20181;-83
2022/06/02 05:15:57;;;;;;;25.10;19.35;;;12.80;76.60;;;;;;5048094;28;20699;-83
2022/06/02 05:18:42;;;;;;;23.02;17.73;;;13.30;76.10;;;;;;5051983;28;20244;-82
2022/06/02 05:21:44;;;;;;;20.38;17.73;;;14.70;73.50;;;;;;5054576;28;20216;-84
2022/06/02 05:24:36;;;;;;;15.93;14.20;;;16.10;68.80;;;;;;5053142;28;20184;-84
2022/06/02 05:27:23;;;;;;;15.38;13.68;;;17.80;63.00;;;;;;5050102;28;20197;-83
2022/06/02 05:30:19;;;;;;;11.73;10.63;;;19.10;58.10;;;;;;5040975;28;20315;-84
2022/06/02 05:33:20;;;;;;;16.33;13.30;;;20.40;53.80;;;;;;5048352;28;20446;-85
2022/06/02 05:36:23;;;;;;;13.07;11.73;;;21.50;49.50;;;;;;5036949;28;20463;-84
2022/06/02 05:39:18;;;;;;;11.83;10.63;;;22.30;45.80;;;;;;5047127;28;20430;-85
2022/06/02 05:42:03;;;;;;;13.50;12.20;;;22.70;44.80;;;;;;5066060;28;20443;-85
2022/06/02 05:44:44;;;;;;;13.10;11.90;;;22.90;43.60;;;;;;5026526;28;20959;-84
2022/06/02 05:47:16;;;;;;;11.80;10.60;;;22.70;43.10;;;;;;5057737;28;21105;-83
2022/06/02 05:50:06;;;;;;;17.13;13.80;;;22.50;43.50;;;;;;5057153;28;20423;-84
2022/06/02 05:52:56;;;;;;;13.03;11.73;;;22.10;44.20;;;;;;5060158;28;20428;-84
2022/06/02 05:55:52;;;;;;;12.40;10.60;;;22.40;43.90;;;;;;5056323;28;20467;-86
2022/06/02 05:58:30;;;;;;;12.77;11.67;;;22.40;43.20;;;;;;5055980;28;20506;-85
2022/06/02 06:01:13;;;;;;;15.87;14.20;;;22.30;43.30;;;;;;5059490;28;20522;-87
2022/06/02 06:03:58;;;;;;;13.30;11.90;;;22.00;43.90;;;;;;5051273;28;20425;-85
2022/06/02 06:06:47;;;;;;;15.90;12.07;;;22.00;44.50;;;;;;5057865;28;20435;-86
2022/06/02 06:09:37;;;;;;;16.27;14.60;;;21.80;46.10;;;;;;5057412;28;20434;-84
2022/06/02 06:12:12;;;;;;;11.90;10.80;;;21.40;47.50;;;;;;5057377;28;20589;-86
2022/06/02 06:14:46;;;;;;;11.50;10.30;;;21.30;49.20;;;;;;5057150;28;20454;-84
2022/06/02 06:17:45;;;;;;;13.13;11.83;;;21.70;47.50;;;;;;5056695;28;20434;-83
2022/06/02 06:20:31;;;;;;;9.13;8.17;;;21.80;45.90;;;;;;5052112;28;20455;-84
2022/06/02 06:23:30;;;;;;;10.47;9.57;;;21.60;46.30;;;;;;5049810;28;20423;-85
2022/06/02 06:25:58;;;;;;;9.03;7.60;;;21.60;46.40;;;;;;5036707;28;20421;-84
2022/06/02 06:28:34;;;;;;;7.87;7.17;;;21.60;44.90;;;;;;5044772;28;20518;-87
2022/06/02 06:31:17;;;;;;;7.60;6.90;;;21.60;45.20;;;;;;5056616;28;20458;-84
2022/06/02 06:34:06;;;;;;;7.40;6.70;;;21.70;45.90;;;;;;5055929;28;20438;-84
2022/06/02 06:36:56;;;;;;;8.43;7.40;;;22.00;44.20;;;;;;5055754;28;20444;-84
2022/06/02 06:39:40;;;;;;;5.70;5.20;;;22.10;43.60;;;;;;5055031;28;20526;-85
2022/06/02 06:42:38;;;;;;;6.03;5.03;;;21.90;43.60;;;;;;5065263;28;20416;-85
2022/06/02 06:45:31;;;;;;;4.87;4.47;;;22.00;45.00;;;;;;5065019;28;20416;-84
2022/06/02 06:48:23;;;;;;;6.67;5.90;;;22.20;45.70;;;;;;5065873;28;20427;-84
2022/06/02 06:51:16;;;;;;;7.37;5.07;;;22.50;44.20;;;;;;5064931;28;20964;-83
2022/06/02 06:54:13;;;;;;;5.20;4.53;;;22.60;42.90;;;;;;5037304;28;20424;-84
2022/06/02 06:56:53;;;;;;;6.43;5.83;;;22.60;45.10;;;;;;5037676;28;20485;-83
2022/06/02 06:59:47;;;;;;;5.87;5.30;;;22.40;42.20;;;;;;5065344;28;20492;-85
2022/06/02 07:02:32;;;;;;;6.33;5.40;;;21.80;43.30;;;;;;5047038;28;20415;-83
2022/06/02 07:05:20;;;;;;;8.73;4.77;;;21.60;44.30;;;;;;5037915;28;20425;-82
2022/06/02 07:08:04;;;;;;;6.80;5.10;;;21.30;45.00;;;;;;5035035;28;20416;-83
2022/06/02 07:10:48;;;;;;;5.23;4.83;;;21.00;45.20;;;;;;5046765;28;20445;-84
2022/06/02 07:13:37;;;;;;;6.80;4.77;;;20.80;47.50;;;;;;5049285;28;20416;-84
2022/06/02 07:16:30;;;;;;;5.90;5.40;;;20.70;47.50;;;;;;5068542;28;20911;-84
2022/06/02 07:19:16;;;;;;;8.40;7.13;;;20.30;47.40;;;;;;5070787;28;20895;-84
2022/06/02 07:21:48;;;;;;;7.60;6.63;;;19.90;48.80;;;;;;5051861;28;20674;-85
2022/06/02 07:24:29;;;;;;;8.60;7.00;;;19.70;49.00;;;;;;5070127;28;20435;-85
2022/06/02 07:27:12;;;;;;;12.13;7.20;;;19.30;51.80;;;;;;5071145;28;20423;-84
2022/06/02 07:29:44;;;;;;;6.88;6.22;;;19.10;52.90;;;;;;5065417;28;20449;-83
2022/06/02 07:33:06;;;;;;;6.10;5.35;;;18.60;54.60;;;;;;5063832;28;20649;-84
2022/06/02 07:35:46;;;;;;;8.93;7.85;;;18.70;53.00;;;;;;5003824;28;20759;-82
2022/06/02 07:38:46;;;;;;;9.10;8.30;;;18.50;53.60;;;;;;5054351;28;20182;-83
2022/06/02 07:41:30;;;;;;;9.70;8.70;;;18.40;53.20;;;;;;5063900;28;20205;-84
2022/06/02 07:44:24;;;;;;;13.27;10.35;;;18.30;53.00;;;;;;5055969;28;20194;-85
2022/06/02 07:47:19;;;;;;;11.95;10.73;;;18.10;53.80;;;;;;5038635;28;20624;-85
2022/06/02 07:49:57;;;;;;;11.10;9.90;;;17.80;55.10;;;;;;5054614;28;20311;-83
2022/06/02 07:52:29;;;;;;;9.52;7.55;;;17.60;57.00;;;;;;5054590;28;20176;-84
2022/06/02 07:55:07;;;;;;;6.22;5.60;;;17.30;57.80;;;;;;5055748;28;20211;-83
2022/06/02 07:58:08;;;;;;;4.63;3.97;;;17.50;54.60;;;;;;5055054;28;20177;-83
2022/06/02 08:00:53;;;;;;;3.95;2.63;;;17.50;53.00;;;;;;5035162;28;20255;-84
2022/06/02 08:03:51;;;;;;;4.32;3.92;;;17.40;51.80;;;;;;5035513;28;20178;-85
2022/06/02 08:06:26;;;;;;;3.50;3.20;;;17.20;53.60;;;;;;4991974;28;20182;-85
2022/06/02 08:09:09;;;;;;;4.30;3.42;;;17.30;50.80;;;;;;5034329;28;20177;-84
2022/06/02 08:11:43;;;;;;;5.13;4.18;;;17.30;50.00;;;;;;5035069;28;20197;-83
2022/06/02 08:14:19;;;;;;;5.90;4.00;;;17.00;53.90;;;;;;5034126;28;20209;-83
2022/06/02 08:16:53;;;;;;;4.55;4.15;;;16.80;55.60;;;;;;5033941;28;20184;-85
2022/06/02 08:19:44;;;;;;;4.35;3.25;;;16.60;57.70;;;;;;5036081;28;20177;-84
2022/06/02 08:22:16;;;;;;;4.95;3.38;;;16.70;56.20;;;;;;5034194;28;20684;-84
2022/06/02 08:25:03;;;;;;;4.45;3.20;;;16.80;54.70;;;;;;5034582;28;20185;-84
2022/06/02 08:27:51;;;;;;;3.22;2.92;;;17.00;53.60;;;;;;5033767;28;20201;-84
2022/06/02 08:30:20;;;;;;;3.28;2.40;;;17.10;53.80;;;;;;5033853;28;20240;-84
2022/06/02 08:33:21;;;;;;;2.83;2.63;;;17.10;53.10;;;;;;5035621;28;20181;-84
2022/06/02 08:36:12;;;;;;;3.88;2.83;;;17.20;53.60;;;;;;5035351;28;20198;-84
2022/06/02 08:39:05;;;;;;;3.38;3.05;;;16.80;55.80;;;;;;5025262;28;20185;-83
2022/06/02 08:42:02;;;;;;;5.93;3.00;;;17.00;55.00;;;;;;5033869;28;20212;-84
2022/06/02 08:45:04;;;;;;;2.67;2.22;;;17.10;54.20;;;;;;5033873;28;20185;-85
2022/06/02 08:47:48;;;;;;;3.60;2.65;;;17.20;53.20;;;;;;5033776;28;20185;-84
2022/06/02 08:50:53;;;;;;;3.35;2.90;;;17.10;54.00;;;;;;5033265;28;20194;-84
2022/06/02 08:53:40;;;;;;;2.40;2.25;;;17.30;53.00;;;;;;4998489;28;20667;-83
2022/06/02 08:56:18;;;;;;;3.00;2.80;;;17.40;52.90;;;;;;5033889;28;20579;-84
2022/06/02 08:59:07;;;;;;;5.15;3.00;;;17.60;52.00;;;;;;5039690;28;20184;-83
2022/06/02 09:01:48;;;;;;;3.08;2.58;;;17.50;53.70;;;;;;5053194;28;20227;-85
2022/06/02 09:04:31;;;;;;;3.65;3.03;;;17.60;52.50;;;;;;5054806;28;20715;-83
2022/06/02 09:07:18;;;;;;;3.55;3.22;;;17.60;51.80;;;;;;5053401;28;20177;-84
2022/06/02 09:10:04;;;;;;;3.10;2.90;;;17.60;52.10;;;;;;5055276;28;20164;-84
2022/06/02 09:12:52;;;;;;;2.70;2.50;;;17.60;52.40;;;;;;5057397;28;20184;-83
2022/06/02 09:15:36;;;;;;;4.13;3.25;;;17.50;52.30;;;;;;5057326;28;20200;-84
2022/06/02 09:18:35;;;;;;;3.90;3.42;;;17.70;51.70;;;;;;5059319;28;20165;-85
2022/06/02 09:21:14;;;;;;;10.48;4.55;;;17.80;52.00;;;;;;5058170;28;20241;-84
2022/06/02 09:24:12;;;;;;;4.35;3.85;;;17.70;50.80;;;;;;5056902;28;20176;-84
2022/06/02 09:27:01;;;;;;;4.63;4.22;;;17.80;51.20;;;;;;5058005;28;20162;-83
2022/06/02 09:29:44;;;;;;;6.13;4.75;;;18.00;50.00;;;;;;5058125;28;20201;-85
2022/06/02 09:32:16;;;;;;;5.05;3.60;;;18.10;50.20;;;;;;5057060;28;20161;-83
2022/06/02 09:34:54;;;;;;;3.40;3.10;;;18.20;49.00;;;;;;5058041;28;20555;-84
2022/06/02 09:37:56;;;;;;;5.43;4.93;;;18.10;48.10;;;;;;5058135;28;20192;-85
2022/06/02 09:41:04;;;;;;;6.00;4.55;;;18.20;49.20;;;;;;5056512;28;20215;-83
2022/06/02 09:44:17;;;;;;;4.65;4.25;;;18.20;50.10;;;;;;5057646;28;20515;-85
2022/06/02 09:47:13;;;;;;;5.72;5.22;;;18.20;50.70;;;;;;5038133;28;20185;-83
2022/06/02 09:50:10;;;;;;;8.23;6.35;;;18.30;50.20;;;;;;5056756;28;20655;-85
2022/06/02 09:52:57;;;;;;;6.50;5.90;;;18.40;49.80;;;;;;5021731;28;20213;-83
2022/06/02 09:55:44;;;;;;;6.07;5.57;;;18.50;48.90;;;;;;5055811;28;20193;-85
2022/06/02 09:58:23;;;;;;;5.93;5.32;;;18.40;49.60;;;;;;5055988;28;20664;-84
2022/06/02 10:01:06;;;;;;;6.47;4.90;;;18.50;48.70;;;;;;5055741;28;20200;-86
2022/06/02 10:03:50;;;;;;;4.30;4.00;;;18.40;47.90;;;;;;5056703;28;20173;-84
2022/06/02 10:06:30;;;;;;;4.60;4.20;;;18.30;48.00;;;;;;5056902;28;20162;-84
2022/06/02 10:09:17;;;;;;;4.88;4.38;;;18.20;48.20;;;;;;5055919;28;20196;-84
2022/06/02 10:15:34;;;;;;;7.10;5.93;;;18.10;49.10;;;;;;5067397;28;20222;-84
2022/06/02 10:18:37;;;;;;;5.40;4.68;;;18.20;49.20;;;;;;5066334;28;20161;-84
2022/06/02 10:21:44;;;;;;;5.00;4.30;;;18.20;49.70;;;;;;5064881;28;20207;-85
2022/06/02 10:24:24;;;;;;;5.53;4.72;;;18.40;49.90;;;;;;5064258;28;20177;-86
2022/06/02 10:27:23;;;;;;;5.53;3.78;;;18.70;48.30;;;;;;5055349;28;20173;-85
2022/06/02 10:30:17;;;;;;;4.25;3.95;;;18.80;47.80;;;;;;5054952;28;20718;-82
2022/06/02 10:33:23;;;;;;;3.33;3.03;;;19.00;45.50;;;;;;5055476;28;20230;-84
2022/06/02 10:36:19;;;;;;;3.42;3.22;;;19.10;46.00;;;;;;5056461;28;20211;-83
2022/06/02 10:38:51;;;;;;;4.65;4.20;;;19.20;45.50;;;;;;5054678;28;20185;-82
2022/06/02 10:41:29;;;;;;;7.28;3.80;;;19.30;44.20;;;;;;5055288;28;20203;-84
2022/06/02 10:44:21;;;;;;;4.75;4.25;;;19.20;44.60;;;;;;5054895;28;20342;-84
2022/06/02 10:47:25;;;;;;;6.93;4.40;;;19.20;46.00;;;;;;5054822;28;20177;-83
2022/06/02 10:49:53;;;;;;;5.05;4.65;;;19.20;45.50;;;;;;5054835;28;20225;-84
2022/06/02 10:52:39;;;;;;;5.60;5.03;;;19.10;45.50;;;;;;5038995;28;20174;-83
2022/06/02 10:55:17;;;;;;;5.93;5.43;;;19.00;46.00;;;;;;5034432;28;20198;-83
2022/06/02 10:58:04;;;;;;;5.03;4.63;;;19.10;46.40;;;;;;5036277;28;20826;-83
2022/06/02 11:00:51;;;;;;;5.25;4.75;;;19.00;45.80;;;;;;5034891;28;20273;-84
2022/06/02 11:03:38;;;;;;;4.30;3.90;;;19.00;45.80;;;;;;5034524;28;20659;-83
2022/06/02 11:06:25;;;;;;;4.05;3.53;;;19.10;49.30;;;;;;5034597;28;20188;-84
2022/06/02 11:09:04;;;;;;;6.57;4.75;;;19.10;52.00;;;;;;5035040;28;20178;-82
2022/06/02 11:11:56;;;;;;;6.15;5.55;;;19.30;47.30;;;;;;5034497;28;20601;-83
2022/06/02 11:14:53;;;;;;;5.40;4.90;;;19.20;45.50;;;;;;5034181;28;20197;-83
2022/06/02 11:17:47;;;;;;;10.38;6.47;;;19.00;45.30;;;;;;5033845;28;20185;-82
2022/06/02 11:20:20;;;;;;;5.78;5.20;;;18.90;45.50;;;;;;5034297;28;20285;-83
2022/06/02 11:22:57;;;;;;;7.78;5.85;;;18.90;46.60;;;;;;5033869;28;20232;-84
2022/06/02 11:26:03;;;;;;;7.20;6.50;;;19.10;46.20;;;;;;5037395;28;20196;-82
2022/06/02 11:28:53;;;;;;;8.40;6.93;;;19.10;45.20;;;;;;5054185;28;20161;-85
2022/06/02 11:31:43;;;;;;;7.13;6.43;;;19.00;45.30;;;;;;5054090;28;20278;-84
2022/06/02 11:34:12;;;;;;;6.93;6.25;;;18.90;46.10;;;;;;5053293;28;20236;-82
2022/06/02 11:36:42;;;;;;;6.35;5.70;;;19.00;46.40;;;;;;5053750;28;20692;-83
2022/06/02 11:39:50;;;;;;;5.07;4.57;;;19.00;46.70;;;;;;5053563;28;20199;-83
2022/06/02 11:42:25;;;;;;;6.18;5.68;;;19.10;45.30;;;;;;5039576;28;20260;-83
2022/06/02 11:45:38;;;;;;;9.23;6.55;;;19.20;45.70;;;;;;5055569;28;20546;-82
2022/06/02 11:48:22;;;;;;;8.32;6.18;;;19.10;46.10;;;;;;5008156;28;20193;-82
2022/06/02 11:51:08;;;;;;;5.25;4.75;;;19.10;46.60;;;;;;5053633;28;20200;-83
2022/06/02 11:53:57;;;;;;;7.00;6.38;;;19.20;46.30;;;;;;5053551;28;20203;-82
2022/06/02 11:56:31;;;;;;;9.88;4.75;;;19.30;45.40;;;;;;5061630;28;20185;-83
2022/06/02 11:59:42;;;;;;;6.35;4.38;;;19.60;44.80;;;;;;5057607;28;20644;-82
2022/06/02 12:02:20;;;;;;;5.47;4.80;;;19.60;44.00;;;;;;5056435;28;20184;-83
2022/06/02 12:04:48;;;;;;;5.80;5.30;;;19.80;43.40;;;;;;5054008;28;20180;-84
2022/06/02 12:07:51;;;;;;;8.30;5.30;;;19.80;43.70;;;;;;5053484;28;20170;-82
2022/06/02 12:10:48;;;;;;;5.35;4.85;;;19.90;43.20;;;;;;5054012;28;20200;-83
2022/06/02 12:13:53;;;;;;;6.47;5.40;;;19.80;43.20;;;;;;5061099;28;20177;-82
2022/06/02 12:16:38;;;;;;;5.60;5.00;;;19.90;42.90;;;;;;5076579;28;20196;-84
2022/06/02 12:19:57;;;;;;;4.50;4.10;;;19.90;43.90;;;;;;5076179;28;20177;-83
2022/06/02 12:22:45;;;;;;;5.15;4.75;;;19.90;43.50;;;;;;5076065;28;20166;-82
2022/06/02 12:25:46;;;;;;;5.13;4.50;;;19.80;43.60;;;;;;5076633;28;20158;-83
2022/06/02 12:28:37;;;;;;;4.72;4.05;;;19.90;42.20;;;;;;5073815;28;20158;-84
2022/06/02 12:31:34;;;;;;;3.95;3.65;;;19.80;42.50;;;;;;5061198;28;20217;-84
2022/06/02 12:34:31;;;;;;;4.85;4.45;;;19.90;42.40;;;;;;5072435;28;20173;-84
2022/06/02 12:37:33;;;;;;;6.57;4.78;;;20.00;41.60;;;;;;5072413;28;20207;-84
2022/06/02 12:40:11;;;;;;;5.10;4.60;;;20.00;42.00;;;;;;5055328;28;20684;-83
2022/06/02 12:43:05;;;;;;;5.78;4.65;;;20.00;41.70;;;;;;5056166;28;20454;-84
2022/06/02 12:46:19;;;;;;;5.70;5.18;;;20.00;42.20;;;;;;5054227;28;20184;-83
2022/06/02 12:49:10;;;;;;;4.63;4.23;;;20.10;42.50;;;;;;5052815;28;20205;-82
2022/06/02 12:51:57;;;;;;;5.05;3.85;;;20.10;42.30;;;;;;5052869;28;20443;-83
2022/06/02 12:54:49;;;;;;;3.92;3.53;;;20.10;42.40;;;;;;5052849;28;20204;-82
2022/06/02 12:57:29;;;;;;;4.00;3.60;;;20.00;42.20;;;;;;5015912;28;20185;-84
2022/06/02 13:00:20;;;;;;;3.93;3.57;;;20.10;40.60;;;;;;5036312;28;20197;-85
2022/06/02 13:03:09;;;;;;;5.83;4.50;;;20.00;40.20;;;;;;5032150;28;20511;-84
2022/06/02 13:06:19;;;;;;;5.95;3.85;;;19.90;42.80;;;;;;4987036;28;20935;-83
2022/06/02 13:09:22;;;;;;;3.43;3.13;;;20.00;41.60;;;;;;5028510;28;20204;-83
2022/06/02 13:11:50;;;;;;;4.07;2.93;;;20.20;40.80;;;;;;5032614;28;20448;-84
2022/06/02 13:14:28;;;;;;;4.40;2.97;;;20.20;41.40;;;;;;5032673;28;20622;-83
2022/06/02 13:17:25;;;;;;;5.00;3.53;;;20.10;41.60;;;;;;5032802;28;20421;-85
2022/06/02 13:20:48;;;;;;;3.20;2.90;;;20.40;40.20;;;;;;5034255;28;21009;-84
2022/06/02 13:23:16;;;;;;;7.40;3.20;;;20.60;39.00;;;;;;4954062;29;20412;-84
2022/06/02 13:26:16;;;;;;;4.20;3.37;;;20.60;39.80;;;;;;4937852;29;20426;-84
2022/06/02 13:28:51;;;;;;;5.90;3.90;;;20.70;40.10;;;;;;5005306;28;20420;-85
2022/06/02 13:31:39;;;;;;;7.73;4.40;;;20.80;40.10;;;;;;5033044;28;20470;-84
2022/06/02 13:34:25;;;;;;;5.93;3.07;;;20.80;38.60;;;;;;5032847;28;20482;-83
2022/06/02 13:37:13;;;;;;;3.90;3.00;;;20.60;41.20;;;;;;5032190;28;20413;-84
2022/06/02 13:40:17;;;;;;;4.17;3.73;;;20.50;40.60;;;;;;5033035;28;20409;-85
2022/06/02 13:42:55;;;;;;;3.07;2.87;;;20.60;40.20;;;;;;5032641;28;20488;-84
2022/06/02 13:45:38;;;;;;;3.20;2.90;;;20.60;40.10;;;;;;5034634;28;20507;-83
2022/06/02 13:48:42;;;;;;;3.47;3.17;;;20.60;40.20;;;;;;5034966;28;20456;-82
2022/06/02 13:51:30;;;;;;;3.40;3.10;;;20.60;39.40;;;;;;5039579;28;20493;-83
2022/06/02 14:00:18;;;;;;;3.27;2.97;;;20.60;39.10;;;;;;5074370;28;20418;-83
2022/06/02 14:02:59;;;;;;;2.60;2.40;;;20.60;39.20;;;;;;5056861;28;20480;-84
2022/06/02 14:05:44;;;;;;;4.90;3.70;;;20.70;39.80;;;;;;5059827;28;20562;-84
2022/06/02 14:08:38;;;;;;;6.30;3.37;;;20.80;39.20;;;;;;5059570;28;20412;-84
2022/06/02 14:11:22;;;;;;;2.60;2.40;;;20.80;39.40;;;;;;5059564;28;20444;-84
2022/06/02 14:14:27;;;;;;;3.23;2.20;;;20.80;39.40;;;;;;5050555;28;20458;-86
2022/06/02 14:17:12;;;;;;;2.70;2.50;;;20.80;38.50;;;;;;5044065;28;20424;-83
2022/06/02 14:20:00;;;;;;;2.87;2.67;;;20.80;38.10;;;;;;5049301;28;20435;-85
2022/06/02 14:22:52;;;;;;;2.83;2.60;;;20.80;37.90;;;;;;5053499;28;20404;-84
2022/06/02 14:25:30;;;;;;;3.50;3.20;;;20.80;38.40;;;;;;5015245;28;20409;-85
2022/06/02 14:28:17;;;;;;;3.13;2.50;;;20.80;38.50;;;;;;5038657;28;20408;-84
2022/06/02 14:31:10;;;;;;;3.43;3.13;;;20.90;38.90;;;;;;5037232;28;20487;-85
2022/06/02 14:33:43;;;;;;;5.53;2.97;;;20.80;38.70;;;;;;5036723;28;20452;-85
2022/06/02 14:36:47;;;;;;;2.90;2.70;;;20.80;39.00;;;;;;5036556;28;20566;-84
2022/06/02 14:39:34;;;;;;;5.73;3.57;;;20.90;39.10;;;;;;5035823;28;20424;-84